Main page
METAR-TAF:

METAR-TAF

Airports :

Benbecula, Scotland

Benbecula Airport

latitude: 57-28N, longitude: 007-22W, elevation: 6 m

Current weather observation

The report was made 12 minutes ago, at 13:20 UTC
Wind 16 kt from the West
Temperature 10°C
Humidity 87%
Pressure 1008 hPa
Visibility 10 km or more
Few clouds at a height of 900 ft
Scattered clouds at a height of 1400 ft
Broken clouds at a height of 2000 ft
showers in vicinity

METAR: EGPL 221320Z 26016KT 9999 VCSH FEW009 SCT014 BKN020 10/08 Q1008

Time: 14:32 (13:32 UTC)

Forecast

The report was made 2 hours and 33 minutes ago, at 10:59 UTC
Forecast valid from 22 at 12 UTC to 22 at 18 UTC
Wind 17 kt from the West
Visibility 10 km or more
Few clouds at a height of 2000 ft
Scattered clouds at a height of 3000 ft

TAF: EGPL 221059Z 2212/2218 28017KT 9999 FEW020 SCT030

Weather observations and forecasts of more than 4000 airports (METAR and TAF reports).

The available stations are represented by yellow and red dots on the map.

Hover mouse over dot to see the name of the station.

Then click to see weather observations and forecasts.

To change the map : click on the green buttons with a black cross to zoom in, on the green button with a dash to zoom out, or on the green arrows for adjacent maps.


METAR-TAF: